< Cyclone 199501 1995 Season Cyclone 199503 >
Cyclone 199502 (BOBBY)
General InformationTrack Information on Google MapsDetailed Wind InformationList of All Images || ResourceGoogle EarthGE AnimationAtom FeedGeoJSON
Detalied Best Track (Time Zone = UTC)
Year Month Day Hour Lat. Long. Pressure (hPa) Wind (kt) Class Image Chart
1995 2 19 00 -10.9 134.0 1006 0 0 Image --
1995 2 19 06 -11.4 132.7 1005 19 2 Image --
1995 2 19 12 -11.9 131.3 1005 19 2 Image --
1995 2 19 18 -12.4 130.0 1005 19 2 Image --
1995 2 20 00 -12.9 128.7 1005 19 2 Image --
1995 2 20 06 -13.4 127.3 1005 19 2 Image --
1995 2 20 12 -13.9 125.8 1005 19 2 Image --
1995 2 20 18 -14.4 124.3 1003 21 2 Image --
1995 2 21 00 -14.9 123.2 1000 27 2 Image --
1995 2 21 06 -15.4 122.2 1000 27 2 Image --
1995 2 21 12 -15.8 121.3 998 29 2 Image --
1995 2 21 15 -16.0 120.8 995 35 3 Image --
1995 2 21 18 -16.2 120.3 990 41 3 Image --
1995 2 21 21 -16.4 119.9 990 41 3 Image --
1995 2 22 00 -16.5 119.5 985 47 3 Image --
1995 2 22 03 -16.7 119.1 980 54 4 Image --
1995 2 22 06 -17.0 118.7 980 54 4 Image --
1995 2 22 09 -17.2 118.4 975 60 4 Image --
1995 2 22 12 -17.4 117.9 975 60 4 Image --
1995 2 22 15 -17.7 117.6 970 66 5 Image --
1995 2 22 18 -18.0 117.2 965 70 5 Image --
1995 2 22 21 -18.3 116.8 960 76 5 Image --
1995 2 23 00 -18.3 116.5 955 80 5 Image --
1995 2 23 03 -18.6 116.3 955 80 5 Image --
1995 2 23 06 -18.9 116.1 955 80 5 Image --
1995 2 23 09 -19.1 115.9 955 80 5 Image --
1995 2 23 12 -19.3 115.8 955 80 5 Image --
1995 2 23 15 -19.3 115.8 955 80 5 Image --
1995 2 23 18 -19.6 115.7 955 80 5 Image --
1995 2 23 21 -19.9 115.8 955 80 5 Image --
1995 2 24 00 -20.1 115.8 950 84 5 Image --
1995 2 24 03 -20.4 115.9 940 93 5 Image --
1995 2 24 06 -20.9 115.7 930 101 5 Image --
1995 2 24 09 -21.2 115.6 925 105 5 Image --
1995 2 24 12 -21.3 115.4 930 101 5 Image --
1995 2 24 15 -21.4 115.3 940 93 5 Image --
1995 2 24 18 -21.6 115.2 945 89 5 Image --
1995 2 24 21 -21.7 115.1 950 84 5 Image --
1995 2 25 00 -21.9 115.2 955 80 5 Image --
1995 2 25 03 -22.3 115.2 960 76 5 Image --
1995 2 25 06 -22.7 115.2 970 66 5 Image --
1995 2 25 09 -23.1 115.2 970 66 5 Image --
1995 2 25 12 -23.5 115.3 970 66 5 Image --
1995 2 25 15 -23.9 115.4 975 60 4 Image --
1995 2 25 18 -24.3 115.5 975 60 4 Image --
1995 2 25 21 -24.9 115.7 980 54 4 Image --
1995 2 26 00 -25.4 115.8 980 54 4 Image --
1995 2 26 06 -26.4 116.2 985 47 3 Image --
1995 2 26 12 -27.2 117.2 985 47 3 Image --
1995 2 26 18 -28.0 118.7 985 47 3 Image --
1995 2 27 00 -28.7 120.3 992 39 3 Image --
1995 2 27 06 -29.1 121.0 996 33 2 Image --
< Cyclone 199501 1995 Season Cyclone 199503 >

Help